createdAt,value
2017-06-10T00:00:57.753Z,65.2
2017-06-10T00:01:57.747Z,65.49
2017-06-10T00:02:57.741Z,65.78
2017-06-10T00:03:57.741Z,65.49
2017-06-10T00:04:57.734Z,65.58
2017-06-10T00:05:57.732Z,65.39
2017-06-10T00:06:57.726Z,65.39
2017-06-10T00:07:57.721Z,65.58
2017-06-10T00:08:57.715Z,65.39
2017-06-10T00:09:57.712Z,65.26
2017-06-10T00:10:57.708Z,65.26
2017-06-10T00:11:57.402Z,65.26
2017-06-10T00:12:57.700Z,65.36
2017-06-10T00:13:57.696Z,65.36
2017-06-10T00:14:57.392Z,65.55
2017-06-10T00:15:57.687Z,65.08
2017-06-10T00:16:57.683Z,65.45
2017-06-10T00:17:57.679Z,65.74
2017-06-10T00:18:57.675Z,65.74
2017-06-10T00:19:57.671Z,65.65
2017-06-10T00:20:57.667Z,65.55
2017-06-10T00:21:57.663Z,65.26
2017-06-10T00:22:57.657Z,66.22
2017-06-10T00:23:57.663Z,65.94
2017-06-10T00:24:57.649Z,65.94
2017-06-10T00:25:57.650Z,65.94
2017-06-10T00:26:57.342Z,66.03
2017-06-10T00:27:57.638Z,66.22
2017-06-10T00:28:57.638Z,66.03
2017-06-10T00:29:57.629Z,65.84
2017-06-10T00:30:57.625Z,66.03
2017-06-10T00:31:57.622Z,65.94
2017-06-10T00:32:57.617Z,66.03
2017-06-10T00:33:57.614Z,65.65
2017-06-10T00:34:57.609Z,65.94
2017-06-10T00:35:57.609Z,65.45
2017-06-10T00:36:57.604Z,65.74
2017-06-10T00:37:57.600Z,65.55
2017-06-10T00:38:57.592Z,65.55
2017-06-10T00:39:57.587Z,65.74
2017-06-10T00:40:57.582Z,65.55
2017-06-10T00:41:57.579Z,65.65
2017-06-10T00:42:57.577Z,65.55
2017-06-10T00:43:57.570Z,65.36
2017-06-10T00:44:57.569Z,65.55
2017-06-10T00:45:57.562Z,65.74
2017-06-10T00:46:57.557Z,65.08
2017-06-10T00:47:57.552Z,65.17
2017-06-10T00:48:57.549Z,65.45
2017-06-10T00:49:57.544Z,66.03
2017-06-10T00:50:57.539Z,65.94
2017-06-10T00:51:57.536Z,66.19
2017-06-10T00:52:57.531Z,66.13
2017-06-10T00:53:57.224Z,65.61
2017-06-10T00:54:57.523Z,66.09
2017-06-10T00:55:57.517Z,65.9
2017-06-10T00:56:57.512Z,65.61
2017-06-10T00:57:57.208Z,66.19
2017-06-10T00:58:57.503Z,66.38
2017-06-10T00:59:57.504Z,66.38
2017-06-10T01:00:57.496Z,66.38
2017-06-10T01:01:57.493Z,66.47
2017-06-10T01:02:57.491Z,66.19
2017-06-10T01:03:57.488Z,66.57
2017-06-10T01:04:57.477Z,66.47
2017-06-10T01:05:57.473Z,66.19
2017-06-10T01:06:57.468Z,66.19
2017-06-10T01:07:57.464Z,66.47
2017-06-10T01:08:57.459Z,66.67
2017-06-10T01:09:57.455Z,66.57
2017-06-10T01:10:57.450Z,66.57
2017-06-10T01:11:57.446Z,66.38
2017-06-10T01:12:57.442Z,66.51
2017-06-10T01:13:57.437Z,66.41
2017-06-10T01:14:57.129Z,66.51
2017-06-10T01:15:57.445Z,66.03
2017-06-10T01:16:57.423Z,66.41
2017-06-10T01:17:57.419Z,66.51
2017-06-10T01:18:57.417Z,66.22
2017-06-10T01:19:57.412Z,66.51
2017-06-10T01:20:57.404Z,66.13
2017-06-10T01:21:57.401Z,66.13
2017-06-10T01:22:57.397Z,66.13
2017-06-10T01:23:57.392Z,66.03
2017-06-10T01:24:57.388Z,66.03
2017-06-10T01:25:57.383Z,66.13
2017-06-10T01:26:57.076Z,66.03
2017-06-10T01:27:57.374Z,66.06
2017-06-10T01:28:57.369Z,66.03
2017-06-10T01:29:57.366Z,66.25
2017-06-10T01:30:57.362Z,65.78
2017-06-10T01:31:57.357Z,65.58
2017-06-10T01:32:57.352Z,65.78
2017-06-10T01:33:57.351Z,65.49
2017-06-10T01:34:57.346Z,65.68
2017-06-10T01:35:57.340Z,65.97
2017-06-10T01:36:57.336Z,65.88
2017-06-10T01:37:57.331Z,65.11
2017-06-10T01:38:57.327Z,65.11
2017-06-10T01:39:57.323Z,65.78
2017-06-10T01:40:57.320Z,65.78
2017-06-10T01:41:57.315Z,65.68
2017-06-10T01:42:57.309Z,65.68
2017-06-10T01:43:57.307Z,65.01
2017-06-10T01:44:57.301Z,64.92
2017-06-10T01:45:57.298Z,65.2
2017-06-10T01:46:57.293Z,64.43
2017-06-10T01:47:57.290Z,64.72
2017-06-10T01:48:57.285Z,64.63
2017-06-10T01:49:57.288Z,64.72
2017-06-10T01:50:56.975Z,64.53
2017-06-10T01:51:57.272Z,64.15
2017-06-10T01:52:57.269Z,64.43
2017-06-10T01:53:57.264Z,64.43
2017-06-10T01:54:57.259Z,64.53
2017-06-10T01:55:57.256Z,64.72
2017-06-10T01:56:57.252Z,64.92
2017-06-10T01:57:57.249Z,64.63
2017-06-10T01:58:56.950Z,64.82
2017-06-10T01:59:57.240Z,64.53
2017-06-10T02:00:56.933Z,64.53
2017-06-10T02:01:57.234Z,64.72
2017-06-10T02:02:57.231Z,64.63
2017-06-10T02:03:57.224Z,64.63
2017-06-10T02:04:57.219Z,64.82
2017-06-10T02:05:57.215Z,64.82
2017-06-10T02:06:57.214Z,65.2
2017-06-10T02:07:57.214Z,65.2
2017-06-10T02:08:57.205Z,65.08
2017-06-10T02:09:57.201Z,65.45
2017-06-10T02:10:57.194Z,65.45
2017-06-10T02:11:57.191Z,65.36
2017-06-10T02:12:57.186Z,65.65
2017-06-10T02:13:57.192Z,65.97
2017-06-10T02:14:57.177Z,65.97
2017-06-10T02:15:57.198Z,65.84
2017-06-10T02:16:57.168Z,65.88
2017-06-10T02:17:57.166Z,65.78
2017-06-10T02:18:57.161Z,65.49
2017-06-10T02:19:56.854Z,65.39
2017-06-10T02:20:57.151Z,65.3
2017-06-10T02:21:56.847Z,65.58
2017-06-10T02:22:56.840Z,65.58
2017-06-10T02:23:56.837Z,64.92
2017-06-10T02:24:56.832Z,65.01
2017-06-10T02:25:57.133Z,65.2
2017-06-10T02:26:57.128Z,64.92
2017-06-10T02:27:57.122Z,65.11
2017-06-10T02:28:56.816Z,65.2
2017-06-10T02:29:57.114Z,65.2
2017-06-10T02:30:57.111Z,65.08
2017-06-10T02:31:57.125Z,64.98
2017-06-10T02:32:57.103Z,65.17
2017-06-10T02:33:57.097Z,65.36
2017-06-10T02:34:57.092Z,65.55
2017-06-10T02:35:57.091Z,65.26
2017-06-10T02:36:57.083Z,65.08
2017-06-10T02:37:57.077Z,65.45
2017-06-10T02:38:57.074Z,65.36
2017-06-10T02:39:57.073Z,65.36
2017-06-10T02:40:57.073Z,65.45
2017-06-10T02:41:57.061Z,65.65
2017-06-10T02:42:57.058Z,65.84
2017-06-10T02:43:56.750Z,65.74
2017-06-10T02:44:56.748Z,65.36
2017-06-10T02:45:57.044Z,65.55
2017-06-10T02:46:57.040Z,65.55
2017-06-10T02:47:57.035Z,66.03
2017-06-10T02:48:57.033Z,65.84
2017-06-10T02:49:57.036Z,66.13
2017-06-10T02:50:57.023Z,66.13
2017-06-10T02:51:57.019Z,65.94
2017-06-10T02:52:57.013Z,66.03
2017-06-10T02:53:57.009Z,66.03
2017-06-10T02:54:57.005Z,66.03
2017-06-10T02:55:57.000Z,65.94
2017-06-10T02:56:56.995Z,66.03
2017-06-10T02:57:56.991Z,66.22
2017-06-10T02:58:56.986Z,66.32
2017-06-10T02:59:56.982Z,66.32
2017-06-10T03:00:56.673Z,66.41
2017-06-10T03:01:56.669Z,66.51
2017-06-10T03:02:56.967Z,66.41
2017-06-10T03:03:56.969Z,66.32
2017-06-10T03:04:56.958Z,66.41
2017-06-10T03:05:56.960Z,66.61
2017-06-10T03:06:56.950Z,66.22
2017-06-10T03:07:56.944Z,66.03
2017-06-10T03:08:56.942Z,66.13
2017-06-10T03:09:56.936Z,66.13
2017-06-10T03:10:56.932Z,66.51
2017-06-10T03:11:56.931Z,66.51
2017-06-10T03:12:56.925Z,66.41
2017-06-10T03:13:56.919Z,66.51
2017-06-10T03:14:56.914Z,66.51
2017-06-10T03:15:56.909Z,66.41
2017-06-10T03:16:56.905Z,66.51
2017-06-10T03:17:56.899Z,66.51
2017-06-10T03:18:56.896Z,66.61
2017-06-10T03:19:56.893Z,66.51
2017-06-10T03:20:56.888Z,66.22
2017-06-10T03:21:56.882Z,66.25
2017-06-10T03:22:56.881Z,66.7
2017-06-10T03:23:56.881Z,66.35
2017-06-10T03:24:56.871Z,65.97
2017-06-10T03:25:56.865Z,66.06
2017-06-10T03:26:56.861Z,65.68
2017-06-10T03:27:56.857Z,66.06
2017-06-10T03:28:56.853Z,66.06
2017-06-10T03:29:56.850Z,66.06
2017-06-10T03:30:56.845Z,65.97
2017-06-10T03:31:56.840Z,66.06
2017-06-10T03:32:56.835Z,66.06
2017-06-10T03:33:56.832Z,66.16
2017-06-10T03:34:56.826Z,66.06
2017-06-10T03:35:56.822Z,65.78
2017-06-10T03:36:56.822Z,65.78
2017-06-10T03:37:56.815Z,66
2017-06-10T03:38:56.811Z,66.09
2017-06-10T03:39:56.808Z,65.62
2017-06-10T03:40:56.803Z,65.81
2017-06-10T03:41:56.800Z,65.71
2017-06-10T03:42:56.795Z,64.85
2017-06-10T03:43:56.791Z,65.23
2017-06-10T03:44:56.789Z,65.14
2017-06-10T03:45:56.480Z,64.85
2017-06-10T03:46:56.779Z,64.85
2017-06-10T03:47:56.777Z,64.37
2017-06-10T03:48:56.778Z,64.56
2017-06-10T03:49:56.767Z,64.66
2017-06-10T03:50:56.762Z,64.47
2017-06-10T03:51:56.758Z,64.85
2017-06-10T03:52:56.758Z,64.47
2017-06-10T03:53:56.752Z,64.66
2017-06-10T03:54:56.748Z,64.56
2017-06-10T03:55:56.743Z,64.37
2017-06-10T03:56:56.771Z,64.47
2017-06-10T03:57:56.735Z,64.37
2017-06-10T03:58:56.731Z,65.14
2017-06-10T03:59:56.726Z,64.47
2017-06-10T04:00:56.725Z,64.95
2017-06-10T04:01:56.719Z,64.56
2017-06-10T04:02:56.715Z,64.28
2017-06-10T04:03:56.711Z,64.59
2017-06-10T04:04:56.711Z,64.79
2017-06-10T04:05:56.704Z,64.31
2017-06-10T04:06:56.704Z,63.26
2017-06-10T04:07:56.697Z,63.54
2017-06-10T04:08:56.694Z,63.73
2017-06-10T04:09:56.691Z,63.76
2017-06-10T04:10:56.688Z,63.09
2017-06-10T04:11:56.686Z,63.09
2017-06-10T04:12:56.680Z,63.32
2017-06-10T04:13:56.678Z,62.74
2017-06-10T04:14:56.675Z,62.45
2017-06-10T04:15:56.673Z,61.78
2017-06-10T04:16:56.672Z,62.26
2017-06-10T04:17:56.669Z,61.91
2017-06-10T04:18:56.669Z,61.72
2017-06-10T04:19:56.663Z,61.72
2017-06-10T04:20:56.662Z,61.52
2017-06-10T04:21:56.658Z,61.36
2017-06-10T04:22:56.655Z,61.11
2017-06-10T04:23:56.654Z,60.91
2017-06-10T04:24:56.653Z,60.85
2017-06-10T04:25:56.656Z,61.07
2017-06-10T04:26:56.649Z,60.42
2017-06-10T04:27:56.677Z,60.62
2017-06-10T04:28:56.649Z,60.36
2017-06-10T04:29:56.649Z,60.97
2017-06-10T04:30:56.649Z,60.52
2017-06-10T04:31:56.649Z,60.83
2017-06-10T04:32:56.649Z,60.38
2017-06-10T04:33:56.650Z,60.22
2017-06-10T04:34:56.652Z,60.06
2017-06-10T04:35:56.652Z,59.67
2017-06-10T04:36:56.655Z,59.92
2017-06-10T04:37:56.657Z,58.4
2017-06-10T04:38:56.659Z,58.12
2017-06-10T04:39:56.666Z,57.86
2017-06-10T04:40:56.666Z,56.72
2017-06-10T04:41:56.669Z,56.56
2017-06-10T04:42:56.673Z,55.04
2017-06-10T04:43:56.680Z,54.28
2017-06-10T04:44:56.683Z,53.92
2017-06-10T04:45:56.688Z,52.88
2017-06-10T04:46:56.694Z,51.65
2017-06-10T04:47:56.397Z,50.7
2017-06-10T04:48:56.705Z,48.1
2017-06-10T04:49:56.412Z,47.74
2017-06-10T04:50:56.414Z,47.56
2017-06-10T04:51:56.726Z,47.27
2017-06-10T04:52:56.732Z,46.71
2017-06-10T04:53:56.740Z,45.94
2017-06-10T04:54:56.748Z,44.79
2017-06-10T04:55:56.755Z,43.85
2017-06-10T04:56:56.763Z,42.98
2017-06-10T04:57:56.771Z,41.35
2017-06-10T04:58:56.794Z,41.35
2017-06-10T04:59:56.790Z,41.46
2017-06-10T05:00:56.802Z,40.58
2017-06-10T05:01:56.806Z,39.53
2017-06-10T05:02:56.815Z,38.57
2017-06-10T05:03:56.824Z,38.1
2017-06-10T05:04:56.835Z,36.36
2017-06-10T05:05:56.845Z,35.19
2017-06-10T05:06:56.855Z,35.4
2017-06-10T05:07:56.864Z,35.01
2017-06-10T05:08:56.874Z,34.24
2017-06-10T05:09:56.886Z,33.38
2017-06-10T05:10:56.895Z,32.01
2017-06-10T05:11:56.905Z,32.01
2017-06-10T05:12:56.916Z,31.24
2017-06-10T05:13:56.625Z,31.14
2017-06-10T05:14:56.937Z,30.65
2017-06-10T05:15:56.948Z,30.96
2017-06-10T05:16:56.962Z,30.37
2017-06-10T05:17:56.971Z,30.19
2017-06-10T05:18:56.983Z,29.8
2017-06-10T05:19:56.993Z,28.43
2017-06-10T05:20:57.006Z,28.25
2017-06-10T05:21:57.016Z,28.15
2017-06-10T05:22:57.034Z,27.97
2017-06-10T05:23:57.041Z,27.97
2017-06-10T05:24:57.052Z,27.87
2017-06-10T05:25:57.065Z,27.77
2017-06-10T05:26:57.080Z,26.89
2017-06-10T05:27:57.089Z,26.89
2017-06-10T05:28:57.106Z,26.98
2017-06-10T05:29:57.112Z,26.59
2017-06-10T05:30:57.125Z,26
2017-06-10T05:31:57.137Z,26.4
2017-06-10T05:32:57.149Z,26.2
2017-06-10T05:33:57.162Z,26.2
2017-06-10T05:34:57.174Z,25.43
2017-06-10T05:35:57.187Z,24.74
2017-06-10T05:36:57.201Z,25.03
2017-06-10T05:37:57.212Z,25.24
2017-06-10T05:38:57.226Z,25.04
2017-06-10T05:39:57.240Z,25.26
2017-06-10T05:40:57.254Z,24.66
2017-06-10T05:41:57.264Z,24.57
2017-06-10T05:42:57.283Z,24.18
2017-06-10T05:43:57.290Z,24.08
2017-06-10T05:44:57.306Z,23.89
2017-06-10T05:45:57.316Z,23.79
2017-06-10T05:46:57.332Z,24.08
2017-06-10T05:47:57.346Z,23.61
2017-06-10T05:48:57.357Z,23.9
2017-06-10T05:49:57.371Z,23.02
2017-06-10T05:50:57.388Z,22.92
2017-06-10T05:51:57.400Z,22.24
2017-06-10T05:52:57.114Z,22.24
2017-06-10T05:53:57.430Z,22.15
2017-06-10T05:54:57.469Z,22.05
2017-06-10T05:55:57.454Z,21.66
2017-06-10T05:56:57.468Z,20.97
2017-06-10T05:57:57.482Z,21.26
2017-06-10T05:58:57.497Z,20.48
2017-06-10T05:59:57.510Z,20.97
2017-06-10T06:00:57.525Z,20.78
2017-06-10T06:01:57.540Z,20.57
2017-06-10T06:02:57.554Z,20.97
2017-06-10T06:03:57.575Z,20.49
2017-06-10T06:04:57.586Z,20.19
2017-06-10T06:05:57.598Z,20.3
2017-06-10T06:06:57.615Z,20.01
2017-06-10T06:07:57.631Z,19.81
2017-06-10T06:08:57.647Z,19.51
2017-06-10T06:09:57.658Z,19.42
2017-06-10T06:10:57.673Z,19.32
2017-06-10T06:11:57.387Z,18.84
2017-06-10T06:12:57.710Z,18.65
2017-06-10T06:13:57.723Z,18.46
2017-06-10T06:14:57.738Z,18.26
2017-06-10T06:15:57.752Z,18.26
2017-06-10T06:16:57.768Z,18.06
2017-06-10T06:17:57.507Z,18.06
2017-06-10T06:18:57.805Z,17.66
2017-06-10T06:19:57.817Z,17.96
2017-06-10T06:20:57.833Z,17.66
2017-06-10T06:21:57.850Z,17.66
2017-06-10T06:22:57.866Z,16.97
2017-06-10T06:23:57.885Z,16.78
2017-06-10T06:24:57.900Z,17.07
2017-06-10T06:25:57.918Z,17.07
2017-06-10T06:26:57.937Z,16.48
2017-06-10T06:27:57.950Z,17.07
2017-06-10T06:28:57.968Z,17.85
2017-06-10T06:29:57.986Z,17.07
2017-06-10T06:30:58.002Z,16.87
2017-06-10T06:31:57.717Z,17.26
2017-06-10T06:32:58.038Z,16.47
2017-06-10T06:33:58.053Z,15.98
2017-06-10T06:34:58.071Z,15.69
2017-06-10T06:35:58.087Z,15.88
2017-06-10T06:36:57.802Z,16.46
2017-06-10T06:37:58.124Z,16.95
2017-06-10T06:38:58.140Z,17.24
2017-06-10T06:39:58.156Z,17.73
2017-06-10T06:40:58.174Z,17.14
2017-06-10T06:41:58.190Z,16.74
2017-06-10T06:42:58.209Z,17.24
2017-06-10T06:43:58.223Z,17.33
2017-06-10T06:44:58.242Z,17.24
2017-06-10T06:45:58.257Z,17.14
2017-06-10T06:46:58.275Z,16.85
2017-06-10T06:47:58.291Z,17.14
2017-06-10T06:48:58.307Z,17.33
2017-06-10T06:49:58.324Z,17.24
2017-06-10T06:50:58.339Z,16.74
2017-06-10T06:51:58.356Z,17.14
2017-06-10T06:52:58.373Z,17.14
2017-06-10T06:53:58.390Z,16.85
2017-06-10T06:54:58.406Z,16.55
2017-06-10T06:55:58.422Z,16.64
2017-06-10T06:56:58.134Z,16.94
2017-06-10T06:57:58.452Z,17.04
2017-06-10T06:58:58.468Z,17.23
2017-06-10T06:59:58.488Z,17.33
2017-06-10T07:00:58.507Z,17.23
2017-06-10T07:01:58.516Z,16.83
2017-06-10T07:02:58.532Z,17.24
2017-06-10T07:03:58.547Z,17.04
2017-06-10T07:04:58.565Z,17.04
2017-06-10T07:05:58.582Z,17.62
2017-06-10T07:06:58.595Z,16.93
2017-06-10T07:07:58.611Z,17.23
2017-06-10T07:08:58.627Z,17.61
2017-06-10T07:09:58.644Z,17.81
2017-06-10T07:10:58.659Z,17.8
2017-06-10T07:11:58.673Z,18.59
2017-06-10T07:12:58.689Z,18.79
2017-06-10T07:13:58.709Z,18.39
2017-06-10T07:14:58.722Z,17.6
2017-06-10T07:15:58.434Z,17.71
2017-06-10T07:16:58.751Z,17.6
2017-06-10T07:17:58.769Z,18
2017-06-10T07:18:58.781Z,18.1
2017-06-10T07:19:58.799Z,18.59
2017-06-10T07:20:58.814Z,18.79
2017-06-10T07:21:58.830Z,19.08
2017-06-10T07:22:58.849Z,18.59
2017-06-10T07:23:58.860Z,18.19
2017-06-10T07:24:58.877Z,18.39
2017-06-10T07:25:58.891Z,18.49
2017-06-10T07:26:58.605Z,18
2017-06-10T07:27:58.922Z,17.71
2017-06-10T07:28:58.941Z,17.71
2017-06-10T07:29:58.959Z,17.81
2017-06-10T07:30:58.970Z,17.81
2017-06-10T07:31:58.987Z,17.71
2017-06-10T07:32:59.001Z,17.9
2017-06-10T07:33:59.016Z,17.9
2017-06-10T07:34:59.033Z,18.49
2017-06-10T07:35:58.747Z,18.29
2017-06-10T07:36:59.063Z,18
2017-06-10T07:37:59.080Z,17.71
2017-06-10T07:38:59.097Z,17.71
2017-06-10T07:39:59.112Z,18.1
2017-06-10T07:40:59.127Z,18.19
2017-06-10T07:41:59.143Z,17.89
2017-06-10T07:42:59.163Z,18.37
2017-06-10T07:43:59.175Z,18.27
2017-06-10T07:44:59.191Z,18.67
2017-06-10T07:45:59.207Z,18.48
2017-06-10T07:46:59.225Z,18.86
2017-06-10T07:47:59.240Z,18.86
2017-06-10T07:48:59.255Z,18.66
2017-06-10T07:49:59.269Z,19.04
2017-06-10T07:50:59.287Z,19.34
2017-06-10T07:51:59.302Z,19.04
2017-06-10T07:52:59.318Z,19.33
2017-06-10T07:53:59.335Z,19.62
2017-06-10T07:54:59.350Z,20.01
2017-06-10T07:55:59.366Z,20.1
2017-06-10T07:56:59.381Z,19.71
2017-06-10T07:57:59.396Z,20.4
2017-06-10T07:58:59.412Z,20.2
2017-06-10T07:59:59.422Z,20.5
2017-06-10T08:00:59.439Z,19.91
2017-06-10T08:01:59.452Z,20.29
2017-06-10T08:02:59.168Z,20.57
2017-06-10T08:03:59.477Z,21.16
2017-06-10T08:04:59.188Z,21.36
2017-06-10T08:05:59.203Z,21.55
2017-06-10T08:06:59.520Z,20.87
2017-06-10T08:07:59.532Z,21.16
2017-06-10T08:08:59.545Z,21.35
2017-06-10T08:09:59.257Z,21.55
2017-06-10T08:10:59.572Z,20.96
2017-06-10T08:11:59.585Z,21.92
2017-06-10T08:12:59.598Z,22.02
2017-06-10T08:13:59.611Z,22.6
2017-06-10T08:14:59.324Z,22.11
2017-06-10T08:15:59.637Z,22.88
2017-06-10T08:16:59.648Z,23.57
2017-06-10T08:17:59.661Z,24.24
2017-06-10T08:18:59.678Z,24.04
2017-06-10T08:19:59.687Z,23.37
2017-06-10T08:20:59.699Z,24.04
2017-06-10T08:21:59.719Z,24.24
2017-06-10T08:22:59.725Z,24.14
2017-06-10T08:23:59.737Z,23.85
2017-06-10T08:24:59.748Z,24.24
2017-06-10T08:25:59.456Z,24.04
2017-06-10T08:26:59.773Z,23.85
2017-06-10T08:27:59.785Z,24.22
2017-06-10T08:28:59.797Z,24.32
2017-06-10T08:29:59.806Z,24.24
2017-06-10T08:30:59.821Z,24.25
2017-06-10T08:31:59.831Z,24.15
2017-06-10T08:32:59.845Z,24.26
2017-06-10T08:33:59.856Z,23.77
2017-06-10T08:34:59.869Z,22.91
2017-06-10T08:35:59.881Z,22.72
2017-06-10T08:36:59.894Z,22.23
2017-06-10T08:37:59.910Z,20.96
2017-06-10T08:38:59.919Z,20.96
2017-06-10T08:39:59.934Z,21.92
2017-06-10T08:40:59.945Z,22.3
2017-06-10T08:41:59.959Z,22.67
2017-06-10T08:42:59.969Z,23.35
2017-06-10T08:43:59.984Z,23.44
2017-06-10T08:44:59.995Z,23.46
2017-06-10T08:46:00.018Z,23.83
2017-06-10T08:47:00.023Z,24.02
2017-06-10T08:48:00.032Z,24.32
2017-06-10T08:49:00.049Z,24.41
2017-06-10T08:50:00.056Z,24.4
2017-06-10T08:51:00.368Z,24.79
2017-06-10T08:52:00.081Z,24.79
2017-06-10T08:53:00.094Z,24.99
2017-06-10T08:54:00.104Z,25.08
2017-06-10T08:55:00.117Z,25.46
2017-06-10T08:55:59.824Z,24.98
2017-06-10T08:57:00.138Z,26.03
2017-06-10T08:58:00.151Z,25.82
2017-06-10T08:59:00.162Z,26.51
2017-06-10T09:00:00.170Z,26.4
2017-06-10T09:01:00.183Z,26.79
2017-06-10T09:02:00.191Z,26.69
2017-06-10T09:03:00.199Z,26.69
2017-06-10T09:03:59.909Z,27.08
2017-06-10T09:05:00.223Z,26.79
2017-06-10T09:06:00.229Z,27.94
2017-06-10T09:07:00.242Z,28.43
2017-06-10T09:08:00.250Z,29.11
2017-06-10T09:09:00.256Z,28.72
2017-06-10T09:10:00.267Z,28.92
2017-06-10T09:11:00.275Z,27.73
2017-06-10T09:12:00.283Z,28.69
2017-06-10T09:13:00.294Z,29.36
2017-06-10T09:14:00.303Z,29.26
2017-06-10T09:15:00.307Z,30.22
2017-06-10T09:16:00.314Z,30.22
2017-06-10T09:17:00.323Z,30.32
2017-06-10T09:18:00.328Z,30.12
2017-06-10T09:19:00.337Z,30.12
2017-06-10T09:20:00.342Z,30.02
2017-06-10T09:21:00.351Z,30.51
2017-06-10T09:22:00.360Z,30.61
2017-06-10T09:23:00.365Z,31.1
2017-06-10T09:24:00.371Z,31.19
2017-06-10T09:25:00.381Z,30.71
2017-06-10T09:26:00.383Z,30.4
2017-06-10T09:27:00.389Z,30.69
2017-06-10T09:28:00.399Z,31.07
2017-06-10T09:29:00.402Z,30.97
2017-06-10T09:30:00.409Z,32.23
2017-06-10T09:31:00.412Z,32.99
2017-06-10T09:32:00.425Z,32.6
2017-06-10T09:33:00.425Z,33.18
2017-06-10T09:34:00.431Z,33.47
2017-06-10T09:35:00.437Z,33.47
2017-06-10T09:36:00.441Z,33.46
2017-06-10T09:38:00.451Z,33.38
2017-06-10T09:39:00.456Z,34.16
2017-06-10T09:40:00.461Z,33.47
2017-06-10T09:41:00.469Z,33.38
2017-06-10T09:42:00.472Z,33.07
2017-06-10T09:43:00.478Z,32.97
2017-06-10T09:44:00.483Z,32.79
2017-06-10T09:45:00.488Z,33.09
2017-06-10T09:46:00.493Z,32.2
2017-06-10T09:47:00.497Z,32.39
2017-06-10T09:48:00.501Z,32.97
2017-06-10T09:49:00.505Z,33.17
2017-06-10T09:50:00.513Z,33.17
2017-06-10T09:51:00.515Z,33.56
2017-06-10T09:52:00.216Z,33.47
2017-06-10T09:53:00.526Z,33.38
2017-06-10T09:54:00.529Z,33.47
2017-06-10T09:55:00.536Z,31.34
2017-06-10T09:56:00.539Z,31.53
2017-06-10T09:57:00.241Z,32.21
2017-06-10T09:58:00.248Z,33.09
2017-06-10T09:59:00.553Z,32.89
2017-06-10T10:00:00.560Z,32.79
2017-06-10T10:01:00.563Z,32.49
2017-06-10T10:02:00.569Z,33.36
2017-06-10T10:03:00.573Z,34.89
2017-06-10T10:04:00.579Z,34.7
2017-06-10T10:05:00.583Z,33.54
2017-06-10T10:06:00.587Z,33.54
2017-06-10T10:07:00.589Z,33.06
2017-06-10T10:08:00.599Z,33.34
2017-06-10T10:09:00.600Z,32.76
2017-06-10T10:10:00.607Z,32.18
2017-06-10T10:11:00.609Z,32.76
2017-06-10T10:12:00.614Z,33.15
2017-06-10T10:13:00.617Z,34.14
2017-06-10T10:14:00.622Z,34.04
2017-06-10T10:15:00.629Z,34.62
2017-06-10T10:16:00.633Z,35.49
2017-06-10T10:17:00.636Z,34.04
2017-06-10T10:18:00.640Z,33.94
2017-06-10T10:19:00.643Z,32.97
2017-06-10T10:20:00.649Z,32.78
2017-06-10T10:21:00.657Z,31.13
2017-06-10T10:22:00.657Z,31.04
2017-06-10T10:23:00.864Z,32.39
2017-06-10T10:24:00.666Z,32.57
2017-06-10T10:25:00.673Z,33.06
2017-06-10T10:26:00.675Z,33.44
2017-06-10T10:27:00.682Z,33.06
2017-06-10T10:28:00.687Z,33.73
2017-06-10T10:29:00.691Z,33.54
2017-06-10T10:30:00.696Z,33.73
2017-06-10T10:31:00.704Z,33.46
2017-06-10T10:32:00.702Z,33.94
2017-06-10T10:33:00.708Z,33.94
2017-06-10T10:36:00.721Z,30.19
2017-06-10T10:37:00.726Z,29.9
2017-06-10T10:38:00.731Z,30.09
2017-06-10T10:39:00.736Z,31.24
2017-06-10T10:40:00.740Z,30.37
2017-06-10T10:41:00.745Z,30.87
2017-06-10T10:42:00.749Z,31.34
2017-06-10T10:43:00.755Z,32.13
2017-06-10T10:44:00.759Z,30.77
2017-06-10T10:45:00.765Z,29.22
2017-06-10T10:46:00.773Z,29.41
2017-06-10T10:47:00.775Z,30.66
2017-06-10T10:48:00.783Z,31.24
2017-06-10T10:49:00.784Z,32.21
2017-06-10T10:50:00.791Z,31.92
2017-06-10T10:51:00.794Z,32.41
2017-06-10T10:52:00.799Z,32.12
2017-06-10T10:53:00.806Z,32.79
2017-06-10T10:54:00.813Z,32.2
2017-06-10T10:55:00.814Z,31.62
2017-06-10T10:56:00.823Z,31.42
2017-06-10T10:57:00.823Z,32.29
2017-06-10T10:58:00.829Z,31.81
2017-06-10T10:59:00.836Z,32.49
2017-06-10T11:00:00.838Z,32.49
2017-06-10T11:01:00.846Z,32.2
2017-06-10T11:02:00.845Z,31.42
2017-06-10T11:03:00.854Z,31.81
2017-06-10T11:04:00.854Z,31.52
2017-06-10T11:05:00.860Z,30.08
2017-06-10T11:06:00.861Z,30.35
2017-06-10T11:07:00.866Z,30.65
2017-06-10T11:08:00.872Z,31.23
2017-06-10T11:09:00.876Z,31.52
2017-06-10T11:10:00.880Z,31.52
2017-06-10T11:11:00.886Z,31.62
2017-06-10T11:12:00.889Z,32
2017-06-10T11:13:00.595Z,31.91
2017-06-10T11:14:00.900Z,32.39
2017-06-10T11:15:00.902Z,31.89
2017-06-10T11:16:00.905Z,32.36
2017-06-10T11:17:00.909Z,33.33
2017-06-10T11:18:00.913Z,34.28
2017-06-10T11:19:00.918Z,34.77
2017-06-10T11:20:00.922Z,34.94
2017-06-10T11:21:00.923Z,34.84
2017-06-10T11:22:00.927Z,34.65
2017-06-10T11:23:00.931Z,35.04
2017-06-10T11:24:00.934Z,35.04
2017-06-10T11:25:00.938Z,35.04
2017-06-10T11:26:00.940Z,34.84
2017-06-10T11:27:00.644Z,34.94
2017-06-10T11:28:00.644Z,34.67
2017-06-10T11:29:00.952Z,35.05
2017-06-10T11:30:00.954Z,35.64
2017-06-10T11:31:00.959Z,34.78
2017-06-10T11:32:00.962Z,34.78
2017-06-10T11:33:00.964Z,33.42
2017-06-10T11:34:00.968Z,32.37
2017-06-10T11:35:00.971Z,32.28
2017-06-10T11:36:00.979Z,30.82
2017-06-10T11:37:00.677Z,31.21
2017-06-10T11:38:00.981Z,31.99
2017-06-10T11:39:00.987Z,32.37
2017-06-10T11:40:00.988Z,32.18
2017-06-10T11:41:00.688Z,31.89
2017-06-10T11:42:00.996Z,32.47
2017-06-10T11:43:00.694Z,31.91
2017-06-10T11:44:00.700Z,32.49
2017-06-10T11:45:01.009Z,32.39
2017-06-10T11:46:01.010Z,32.29
2017-06-10T11:47:00.713Z,31.73
2017-06-10T11:48:01.021Z,31.63
2017-06-10T11:49:00.719Z,31.82
2017-06-10T11:50:00.722Z,31.84
2017-06-10T11:51:01.031Z,31.55
2017-06-10T11:52:01.035Z,31.55
2017-06-10T11:53:01.042Z,30.48
2017-06-10T11:54:01.042Z,29.51
2017-06-10T11:55:01.046Z,29.22
2017-06-10T11:56:01.053Z,29.98
2017-06-10T11:57:01.054Z,29.98
2017-06-10T11:58:01.059Z,29.98
2017-06-10T11:59:01.064Z,30.85
2017-06-10T12:00:01.070Z,30.76
2017-06-10T12:01:01.072Z,30.57
2017-06-10T12:02:01.078Z,29.9
2017-06-10T12:03:01.082Z,30.09
2017-06-10T12:04:01.086Z,29.61
2017-06-10T12:05:01.091Z,30.19
2017-06-10T12:06:01.095Z,29.9
2017-06-10T12:07:01.101Z,30.29
2017-06-10T12:08:01.105Z,29.61
2017-06-10T12:09:01.109Z,30.09
2017-06-10T12:10:01.123Z,29.98
2017-06-10T12:11:01.118Z,30.27
2017-06-10T12:12:01.121Z,30.66
2017-06-10T12:13:01.126Z,31.34
2017-06-10T12:14:01.131Z,31.05
2017-06-10T12:15:01.141Z,31.53
2017-06-10T12:16:01.139Z,31.53
2017-06-10T12:17:01.145Z,31.53
2017-06-10T12:18:01.149Z,31.44
2017-06-10T12:19:00.851Z,31.53
2017-06-10T12:20:00.854Z,31.53
2017-06-10T12:21:00.861Z,31.53
2017-06-10T12:22:00.866Z,31.63
2017-06-10T12:23:00.867Z,31.24
2017-06-10T12:24:01.177Z,31.53
2017-06-10T12:25:01.185Z,31.53
2017-06-10T12:26:01.186Z,31.05
2017-06-10T12:27:01.189Z,30.37
2017-06-10T12:28:01.193Z,30.47
2017-06-10T12:29:00.896Z,30.37
2017-06-10T12:30:00.899Z,30.38
2017-06-10T12:31:01.208Z,30.66
2017-06-10T12:32:01.240Z,30.57
2017-06-10T12:33:00.914Z,30.38
2017-06-10T12:34:01.220Z,30.97
2017-06-10T12:35:00.924Z,30.77
2017-06-10T12:36:01.230Z,31.16
2017-06-10T12:37:01.241Z,31.07
2017-06-10T12:38:00.935Z,31.45
2017-06-10T12:39:01.241Z,31.07
2017-06-10T12:40:01.248Z,31.07
2017-06-10T12:41:01.252Z,30.87
2017-06-10T12:42:01.255Z,30
2017-06-10T12:43:01.259Z,29.8
2017-06-10T12:44:01.265Z,29.22
2017-06-10T12:45:01.266Z,29.21
2017-06-10T12:46:01.273Z,30.18
2017-06-10T12:47:01.278Z,30.84
2017-06-10T12:48:01.281Z,30.73
2017-06-10T12:49:01.289Z,31.31
2017-06-10T12:50:01.289Z,32.47
2017-06-10T12:51:01.293Z,32.28
2017-06-10T12:52:01.296Z,32.37
2017-06-10T12:53:01.301Z,32.76
2017-06-10T12:54:01.004Z,31.99
2017-06-10T12:55:01.006Z,32.18
2017-06-10T12:56:01.314Z,31.79
2017-06-10T12:57:01.318Z,32.28
2017-06-10T12:58:01.321Z,32.29